Time;durP1;ratioP1;P1;durP2;ratioP2;P2;SDS_P1;SDS_P2;PMS_P1;PMS_P2;Temp;Humidity;BMP_temperature;BMP_pressure;BME280_temperature;BME280_humidity;BME280_pressure;Samples;Min_cycle;Max_cycle;Signal;HPM_P1;HPM_P2
2023/05/24 00:01:51;;;;;;;;;;;;;;;12.51;59.69;101344.59;4193967;28;20016;-65
2023/05/24 00:03:53;;;;;;;;;;;;;;;12.47;60.10;101345.13;4191409;28;20016;-65
2023/05/24 00:05:55;;;;;;;;;;;;;;;12.46;60.21;101338.88;4194037;28;20019;-64
2023/05/24 00:07:58;;;;;;;;;;;;;;;12.46;60.39;101344.28;4193728;28;19958;-65
2023/05/24 00:10:01;;;;;;;;;;;;;;;12.44;60.50;101349.00;4194277;28;20014;-65
2023/05/24 00:12:03;;;;;;;;;;;;;;;12.44;60.18;101349.00;4193991;28;20026;-65
2023/05/24 00:14:05;;;;;;;;;;;;;;;12.38;60.33;101347.00;4193846;28;20056;-65
2023/05/24 00:16:07;;;;;;;;;;;;;;;12.34;60.34;101340.25;4195027;28;20015;-65
2023/05/24 00:18:09;;;;;;;;;;;;;;;12.31;60.24;101354.97;4194778;28;20051;-65
2023/05/24 00:20:12;;;;;;;;;;;;;;;12.29;60.67;101350.75;4194493;28;20016;-65
2023/05/24 00:22:15;;;;;;;;;;;;;;;12.28;60.54;101349.06;4194394;28;20367;-65
2023/05/24 00:24:17;;;;;;;;;;;;;;;12.27;60.53;101353.63;4192807;28;20019;-65
2023/05/24 00:26:20;;;;;;;;;;;;;;;12.26;60.55;101354.66;4194053;28;20011;-64
2023/05/24 00:28:30;;;;;;;;;;;;;;;12.31;60.47;101354.16;4194261;28;19943;-65
2023/05/24 00:30:32;;;;;;;;;;;;;;;12.25;60.51;101356.50;4193307;28;20027;-65
2023/05/24 00:32:34;;;;;;;;;;;;;;;12.23;60.50;101357.72;4194744;28;20028;-65
2023/05/24 00:34:38;;;;;;;;;;;;;;;12.23;60.61;101365.84;4194957;28;20015;-65
2023/05/24 00:36:40;;;;;;;;;;;;;;;12.21;60.58;101365.16;4194071;28;20063;-65
2023/05/24 00:38:44;;;;;;;;;;;;;;;12.20;60.82;101358.91;4194550;28;20019;-65
2023/05/24 00:40:46;;;;;;;;;;;;;;;12.17;60.81;101359.25;4193961;28;20019;-66
2023/05/24 00:42:49;;;;;;;;;;;;;;;12.18;60.54;101357.41;4194272;28;20011;-64
2023/05/24 00:44:51;;;;;;;;;;;;;;;12.12;60.48;101360.78;4194200;28;20024;-65
2023/05/24 00:46:54;;;;;;;;;;;;;;;12.10;60.58;101355.56;4196849;28;20445;-65
2023/05/24 00:48:56;;;;;;;;;;;;;;;12.11;60.69;101356.38;4197112;28;19967;-65
2023/05/24 00:50:58;;;;;;;;;;;;;;;12.06;60.55;101349.59;4196391;28;20018;-64
2023/05/24 00:53:01;;;;;;;;;;;;;;;12.05;60.92;101352.50;4196665;28;20019;-64
2023/05/24 00:55:03;;;;;;;;;;;;;;;12.02;60.67;101356.41;4203786;28;20019;-65
2023/05/24 00:57:08;;;;;;;;;;;;;;;12.02;60.55;101358.25;4196979;28;20413;-65
2023/05/24 00:59:11;;;;;;;;;;;;;;;11.98;60.73;101354.22;4196458;28;20011;-65
2023/05/24 01:01:14;;;;;;;;;;;;;;;11.99;60.93;101350.47;4196654;28;20011;-66
2023/05/24 01:03:16;;;;;;;;;;;;;;;11.99;60.82;101350.47;4196391;28;20468;-65
2023/05/24 01:05:18;;;;;;;;;;;;;;;11.99;60.97;101353.16;4213239;28;20035;-65
2023/05/24 01:07:22;;;;;;;;;;;;;;;11.99;61.22;101354.03;4196725;28;20015;-65
2023/05/24 01:09:26;;;;;;;;;;;;;;;11.96;61.17;101362.50;4197022;28;19928;-65
2023/05/24 01:11:29;;;;;;;;;;;;;;;11.94;61.23;101360.97;4194390;28;20040;-65
2023/05/24 01:13:33;;;;;;;;;;;;;;;11.96;61.41;101367.91;4196282;28;20027;-65
2023/05/24 01:15:40;;;;;;;;;;;;;;;11.93;61.46;101365.53;4197281;28;20718;-65
2023/05/24 01:17:47;;;;;;;;;;;;;;;11.94;61.58;101363.69;4196040;28;20059;-65
2023/05/24 01:19:50;;;;;;;;;;;;;;;11.91;62.06;101359.41;4196779;28;20068;-64
2023/05/24 01:21:56;;;;;;;;;;;;;;;11.94;61.87;101355.56;4197205;28;20019;-65
2023/05/24 01:24:00;;;;;;;;;;;;;;;11.93;62.01;101367.38;4196910;28;20019;-65
2023/05/24 01:26:13;;;;;;;;;;;;;;;11.94;62.31;101353.69;4196118;28;20350;-65
2023/05/24 01:28:16;;;;;;;;;;;;;;;11.95;61.96;101365.38;4197477;28;20043;-65
2023/05/24 01:30:19;;;;;;;;;;;;;;;11.93;61.85;101359.28;4196920;28;20458;-65
2023/05/24 01:32:21;;;;;;;;;;;;;;;11.92;62.41;101365.69;4197283;28;20016;-65
2023/05/24 01:34:25;;;;;;;;;;;;;;;11.94;62.61;101367.22;4197001;28;20027;-65
2023/05/24 01:36:27;;;;;;;;;;;;;;;12.00;62.73;101365.69;4196391;28;20031;-63
2023/05/24 01:38:28;;;;;;;;;;;;;;;12.03;62.47;101366.19;4197006;28;20019;-65
2023/05/24 01:40:30;;;;;;;;;;;;;;;12.04;62.31;101373.31;4179436;28;19956;-64
2023/05/24 01:42:35;;;;;;;;;;;;;;;12.05;62.34;101374.16;4196233;28;20011;-65
2023/05/24 01:44:39;;;;;;;;;;;;;;;12.04;62.74;101377.88;4196576;28;20095;-65
2023/05/24 01:46:42;;;;;;;;;;;;;;;12.00;63.16;101371.94;4196505;28;20099;-65
2023/05/24 01:48:47;;;;;;;;;;;;;;;11.99;63.50;101373.00;4195708;28;20023;-65
2023/05/24 01:50:50;;;;;;;;;;;;;;;11.99;63.54;101380.25;4195886;28;19925;-63
2023/05/24 01:52:52;;;;;;;;;;;;;;;11.98;63.32;101375.88;4195905;28;20397;-64
2023/05/24 01:54:55;;;;;;;;;;;;;;;11.97;63.28;101379.56;4196459;28;20055;-63
2023/05/24 01:56:57;;;;;;;;;;;;;;;11.94;63.40;101378.03;4196016;28;20023;-63
2023/05/24 01:58:59;;;;;;;;;;;;;;;11.95;63.42;101381.63;4212999;28;20019;-63
2023/05/24 02:01:02;;;;;;;;;;;;;;;11.93;63.54;101372.81;4211316;28;20023;-66
2023/05/24 02:03:04;;;;;;;;;;;;;;;11.94;63.88;101371.78;4195860;28;20023;-63
2023/05/24 02:05:07;;;;;;;;;;;;;;;11.96;63.71;101381.44;4195951;28;20023;-63
2023/05/24 02:07:09;;;;;;;;;;;;;;;11.93;63.47;101380.94;4195198;28;20012;-63
2023/05/24 02:09:12;;;;;;;;;;;;;;;11.85;63.67;101379.91;4196490;28;20019;-63
2023/05/24 02:11:14;;;;;;;;;;;;;;;11.82;63.93;101380.25;4195876;28;19924;-64
2023/05/24 02:13:18;;;;;;;;;;;;;;;11.84;64.10;101380.06;4196148;28;20373;-65
2023/05/24 02:15:20;;;;;;;;;;;;;;;11.82;63.60;101372.13;4196372;28;20385;-66
2023/05/24 02:17:25;;;;;;;;;;;;;;;11.85;63.45;101379.06;4196498;28;20016;-66
2023/05/24 02:19:27;;;;;;;;;;;;;;;11.83;63.64;101371.13;4195707;28;20020;-66
2023/05/24 02:21:29;;;;;;;;;;;;;;;11.82;63.72;101372.13;4195395;28;20023;-65
2023/05/24 02:23:31;;;;;;;;;;;;;;;11.83;63.25;101368.41;4194413;28;20016;-66
2023/05/24 02:25:34;;;;;;;;;;;;;;;11.77;63.85;101371.78;4196104;28;20023;-65
2023/05/24 02:27:38;;;;;;;;;;;;;;;11.77;63.79;101368.22;4195443;28;20020;-65
2023/05/24 02:29:40;;;;;;;;;;;;;;;11.78;63.64;101370.75;4195823;28;20368;-65
2023/05/24 02:31:42;;;;;;;;;;;;;;;11.80;63.66;101360.63;4195190;28;20418;-65
2023/05/24 02:33:46;;;;;;;;;;;;;;;11.80;63.64;101367.88;4194812;28;20446;-65
2023/05/24 02:35:48;;;;;;;;;;;;;;;11.79;63.76;101358.94;4194366;28;20019;-64
2023/05/24 02:37:50;;;;;;;;;;;;;;;11.79;63.76;101363.50;4193554;28;20018;-64
2023/05/24 02:39:52;;;;;;;;;;;;;;;11.78;63.81;101365.34;4195421;28;20049;-65
2023/05/24 02:41:54;;;;;;;;;;;;;;;11.74;64.23;101364.00;4195148;28;20018;-65
2023/05/24 02:43:56;;;;;;;;;;;;;;;11.75;64.15;101370.25;4194573;28;20372;-64
2023/05/24 02:45:58;;;;;;;;;;;;;;;11.76;64.58;101364.69;4187439;28;20038;-64
2023/05/24 02:48:00;;;;;;;;;;;;;;;11.78;64.39;101372.63;4196025;28;20015;-64
2023/05/24 02:50:04;;;;;;;;;;;;;;;11.77;64.30;101368.22;4195684;28;20494;-64
2023/05/24 02:52:06;;;;;;;;;;;;;;;11.77;64.11;101363.66;4193911;28;20387;-64
2023/05/24 02:54:08;;;;;;;;;;;;;;;11.76;64.11;101361.13;4194998;28;20027;-64
2023/05/24 02:56:12;;;;;;;;;;;;;;;11.76;64.48;101363.84;4211614;28;20572;-64
2023/05/24 02:58:16;;;;;;;;;;;;;;;11.75;64.61;101370.25;4195232;28;20023;-63
2023/05/24 03:00:20;;;;;;;;;;;;;;;11.74;64.35;101374.84;4194791;28;20031;-64
2023/05/24 03:02:22;;;;;;;;;;;;;;;11.70;64.30;101376.19;4194173;28;20019;-65
2023/05/24 03:04:24;;;;;;;;;;;;;;;11.67;64.67;101380.06;4195369;28;20608;-64
2023/05/24 03:06:29;;;;;;;;;;;;;;;11.65;65.01;101373.13;4195060;28;20016;-64
2023/05/24 03:08:32;;;;;;;;;;;;;;;11.64;64.93;101383.09;4192731;28;20023;-64
2023/05/24 03:10:34;;;;;;;;;;;;;;;11.60;64.86;101384.47;4210622;28;20019;-64
2023/05/24 03:12:36;;;;;;;;;;;;;;;11.60;64.79;101379.06;4194908;28;19935;-64
2023/05/24 03:14:38;;;;;;;;;;;;;;;11.59;65.16;101376.50;4187513;28;20361;-64
2023/05/24 03:16:40;;;;;;;;;;;;;;;11.61;65.38;101385.31;4194427;28;20034;-64
2023/05/24 03:18:43;;;;;;;;;;;;;;;11.62;64.84;101376.19;4194078;28;20025;-64
2023/05/24 03:20:45;;;;;;;;;;;;;;;11.53;65.12;101378.84;4194326;28;20043;-64
2023/05/24 03:22:50;;;;;;;;;;;;;;;11.51;65.22;101380.88;4193578;28;20031;-64
2023/05/24 03:24:52;;;;;;;;;;;;;;;11.48;65.30;101377.69;4194872;28;20018;-64
2023/05/24 03:26:54;;;;;;;;;;;;;;;11.49;65.64;101382.09;4195435;28;20015;-64
2023/05/24 03:28:56;;;;;;;;;;;;;;;11.50;65.29;101381.94;4185527;28;20031;-64
2023/05/24 03:31:05;;;;;;;;;;;;;;;11.46;65.37;101385.97;4193957;28;20026;-64
2023/05/24 03:33:07;;;;;;;;;;;;;;;11.47;65.31;101382.25;4210932;28;19928;-64
2023/05/24 03:35:10;;;;;;;;;;;;;;;11.50;65.93;101378.34;4194416;28;20019;-64
2023/05/24 03:37:13;;;;;;;;;;;;;;;11.54;65.66;101380.56;4194042;28;20019;-63
2023/05/24 03:39:18;;;;;;;;;;;;;;;11.55;65.51;101386.81;4194681;28;20022;-63
2023/05/24 03:41:30;;;;;;;;;;;;;;;11.53;65.45;101384.25;4194143;28;20023;-64
2023/05/24 03:43:34;;;;;;;;;;;;;;;11.53;65.55;101386.13;4210757;28;20354;-64
2023/05/24 03:45:39;;;;;;;;;;;;;;;11.54;65.62;101388.69;4194445;28;20014;-64
2023/05/24 03:47:41;;;;;;;;;;;;;;;11.56;65.64;101390.38;4187509;28;20023;-64
2023/05/24 03:49:43;;;;;;;;;;;;;;;11.56;65.45;101393.91;4194247;28;20027;-64
2023/05/24 03:51:45;;;;;;;;;;;;;;;11.54;65.21;101396.78;4194381;28;20022;-64
2023/05/24 03:53:47;;;;;;;;;;;;;;;11.52;65.40;101398.81;4194254;28;20024;-64
2023/05/24 03:55:51;;;;;;;;;;;;;;;11.52;65.24;101400.69;4193571;28;20016;-64
2023/05/24 03:57:53;;;;;;;;;;;;;;;11.51;65.15;101399.81;4194525;28;20043;-64
2023/05/24 03:59:55;;;;;;;;;;;;;;;11.53;64.98;101400.50;4185338;28;20015;-64
2023/05/24 04:01:57;;;;;;;;;;;;;;;11.54;64.84;101401.38;4193100;28;20023;-65
2023/05/24 04:04:01;;;;;;;;;;;;;;;11.52;64.32;101404.25;4194035;28;20398;-64
2023/05/24 04:06:03;;;;;;;;;;;;;;;11.50;64.30;101395.44;4192735;28;20047;-64
2023/05/24 04:08:05;;;;;;;;;;;;;;;11.55;64.43;101400.34;4192349;28;20023;-64
2023/05/24 04:10:07;;;;;;;;;;;;;;;11.56;64.29;101404.75;4192114;28;20480;-64
2023/05/24 04:12:11;;;;;;;;;;;;;;;11.55;64.19;101397.63;4191990;28;20015;-64
2023/05/24 04:14:16;;;;;;;;;;;;;;;11.50;64.41;101395.44;4194797;28;20409;-63
2023/05/24 04:16:18;;;;;;;;;;;;;;;11.48;64.60;101397.47;4192572;28;20025;-64
2023/05/24 04:18:21;;;;;;;;;;;;;;;11.46;64.41;101394.09;4193546;28;20016;-65
2023/05/24 04:20:24;;;;;;;;;;;;;;;11.44;64.73;101396.13;4195211;28;20026;-64
2023/05/24 04:22:26;;;;;;;;;;;;;;;11.46;64.86;101404.06;4197517;28;20019;-64
2023/05/24 04:24:29;;;;;;;;;;;;;;;11.43;65.23;101399.81;4197838;28;20019;-64
2023/05/24 04:26:32;;;;;;;;;;;;;;;11.49;64.94;101396.44;4195981;28;20019;-64
2023/05/24 04:28:36;;;;;;;;;;;;;;;11.51;64.57;101390.88;4195895;28;20413;-64
2023/05/24 04:30:38;;;;;;;;;;;;;;;11.49;64.24;101396.44;4197369;28;20099;-63
2023/05/24 04:32:40;;;;;;;;;;;;;;;11.43;64.13;101401.69;4196632;28;20019;-64
2023/05/24 04:34:42;;;;;;;;;;;;;;;11.39;63.84;101401.16;4197764;28;20305;-64
2023/05/24 04:36:46;;;;;;;;;;;;;;;11.39;64.15;101406.56;4196986;28;20032;-64
2023/05/24 04:38:49;;;;;;;;;;;;;;;11.41;63.91;101411.81;4197973;28;20027;-64
2023/05/24 04:40:51;;;;;;;;;;;;;;;11.43;64.11;101413.34;4194034;28;20373;-64
2023/05/24 04:42:53;;;;;;;;;;;;;;;11.47;64.01;101413.84;4197052;28;20600;-64
2023/05/24 04:44:56;;;;;;;;;;;;;;;11.51;64.19;101420.63;4197302;28;20027;-64
2023/05/24 04:46:59;;;;;;;;;;;;;;;11.53;64.12;101414.03;4171083;28;20375;-64
2023/05/24 04:49:01;;;;;;;;;;;;;;;11.56;63.74;101425.53;4196557;28;20039;-64
2023/05/24 04:51:04;;;;;;;;;;;;;;;11.51;63.94;101424.19;4197594;28;20027;-64
2023/05/24 04:53:06;;;;;;;;;;;;;;;11.47;63.76;101421.97;4197149;28;20024;-64
2023/05/24 04:55:08;;;;;;;;;;;;;;;11.48;63.92;101419.09;4197117;28;19952;-64
2023/05/24 04:57:10;;;;;;;;;;;;;;;11.50;64.24;101430.63;4196548;28;20011;-65
2023/05/24 04:59:12;;;;;;;;;;;;;;;11.56;63.64;101434.50;4197703;28;20015;-65
2023/05/24 05:01:15;;;;;;;;;;;;;;;11.60;63.78;101437.72;4196834;28;20023;-64
2023/05/24 05:03:17;;;;;;;;;;;;;;;11.60;63.38;101437.72;4196575;28;20466;-64
2023/05/24 05:05:20;;;;;;;;;;;;;;;11.62;62.92;101444.66;4194459;28;20016;-63
2023/05/24 05:07:22;;;;;;;;;;;;;;;11.65;62.26;101438.06;4196865;28;19955;-64
2023/05/24 05:09:24;;;;;;;;;;;;;;;11.64;62.05;101445.31;4195296;28;20015;-64
2023/05/24 05:11:26;;;;;;;;;;;;;;;11.64;62.14;101441.78;4195548;28;20015;-65
2023/05/24 05:13:28;;;;;;;;;;;;;;;11.63;61.99;101446.34;4196333;28;20355;-64
2023/05/24 05:15:31;;;;;;;;;;;;;;;11.63;61.85;101448.19;4196910;28;20657;-64
2023/05/24 05:17:35;;;;;;;;;;;;;;;11.64;61.81;101455.31;4196246;28;20549;-64
2023/05/24 05:19:37;;;;;;;;;;;;;;;11.63;61.61;101453.59;4195597;28;20356;-63
2023/05/24 05:21:39;;;;;;;;;;;;;;;11.63;62.12;101462.59;4197074;28;20355;-63
2023/05/24 05:23:41;;;;;;;;;;;;;;;11.65;61.99;101459.72;4194429;28;20028;-63
2023/05/24 05:25:43;;;;;;;;;;;;;;;11.68;62.19;101464.81;4197182;28;20043;-64
2023/05/24 05:27:45;;;;;;;;;;;;;;;11.69;61.84;101463.75;4196227;28;20015;-64
2023/05/24 05:29:47;;;;;;;;;;;;;;;11.69;61.53;101455.66;4195488;28;20020;-64
2023/05/24 05:31:49;;;;;;;;;;;;;;;11.74;61.88;101464.13;4196204;28;20031;-64
2023/05/24 05:33:52;;;;;;;;;;;;;;;11.76;62.00;101474.78;4196054;28;20019;-64
2023/05/24 05:35:54;;;;;;;;;;;;;;;11.76;61.26;101467.50;4195548;28;20550;-61
2023/05/24 05:37:56;;;;;;;;;;;;;;;11.77;61.43;101471.91;4192416;28;20007;-64
2023/05/24 05:39:58;;;;;;;;;;;;;;;11.79;61.39;101469.88;4194511;28;20024;-64
2023/05/24 05:42:01;;;;;;;;;;;;;;;11.80;61.53;101478.84;4194901;28;20363;-64
2023/05/24 05:44:03;;;;;;;;;;;;;;;11.75;61.26;101479.34;4186834;28;20016;-65
2023/05/24 05:46:05;;;;;;;;;;;;;;;11.68;61.17;101476.47;4194490;28;20016;-64
2023/05/24 05:48:07;;;;;;;;;;;;;;;11.69;61.32;101480.88;4195818;28;20214;-64
2023/05/24 05:50:11;;;;;;;;;;;;;;;11.68;61.54;101481.88;4195740;28;20357;-63
2023/05/24 05:52:13;;;;;;;;;;;;;;;11.66;61.45;101480.34;4195574;28;20048;-64
2023/05/24 05:54:17;;;;;;;;;;;;;;;11.67;61.69;101491.00;4196133;28;20007;-64
2023/05/24 05:56:19;;;;;;;;;;;;;;;11.69;61.44;101482.72;4196383;28;19974;-64
2023/05/24 05:58:21;;;;;;;;;;;;;;;11.72;61.85;101485.94;4196091;28;20003;-64
2023/05/24 06:00:23;;;;;;;;;;;;;;;11.72;61.26;101483.25;4195939;28;20043;-63
2023/05/24 06:02:25;;;;;;;;;;;;;;;11.68;61.27;101491.88;4195356;28;20817;-64
2023/05/24 06:04:27;;;;;;;;;;;;;;;11.65;61.02;101494.91;4195980;28;20459;-64
2023/05/24 06:06:30;;;;;;;;;;;;;;;11.61;61.05;101496.22;4195357;28;20023;-64
2023/05/24 06:08:33;;;;;;;;;;;;;;;11.55;61.25;101500.44;4195660;28;20081;-64
2023/05/24 06:10:35;;;;;;;;;;;;;;;11.54;61.62;101501.47;4195550;28;20019;-64
2023/05/24 06:12:39;;;;;;;;;;;;;;;11.52;61.54;101501.63;4195549;28;20012;-64
2023/05/24 06:14:41;;;;;;;;;;;;;;;11.50;61.62;101508.19;4194338;28;20039;-64
2023/05/24 06:16:44;;;;;;;;;;;;;;;11.51;61.79;101499.91;4191024;28;19963;-63
2023/05/24 06:18:47;;;;;;;;;;;;;;;11.55;62.03;101503.13;4190518;28;20361;-64
2023/05/24 06:20:49;;;;;;;;;;;;;;;11.55;61.67;101503.13;4191250;28;20338;-64
2023/05/24 06:22:52;;;;;;;;;;;;;;;11.49;61.57;101507.38;4189583;28;20055;-64
2023/05/24 06:24:54;;;;;;;;;;;;;;;11.42;61.91;101503.59;4190415;28;20047;-64
2023/05/24 06:26:56;;;;;;;;;;;;;;;11.47;62.32;101503.13;4191774;28;20007;-64
2023/05/24 06:28:58;;;;;;;;;;;;;;;11.50;62.36;101511.78;4194242;28;20612;-64
2023/05/24 06:31:01;;;;;;;;;;;;;;;11.54;62.17;101515.00;4191618;28;20059;-64
2023/05/24 06:33:03;;;;;;;;;;;;;;;11.59;62.24;101518.03;4189905;28;20016;-65
2023/05/24 06:35:06;;;;;;;;;;;;;;;11.64;62.42;101512.13;4189252;28;20043;-65
2023/05/24 06:37:09;;;;;;;;;;;;;;;11.66;62.09;101520.91;4189647;28;20027;-65
2023/05/24 06:39:12;;;;;;;;;;;;;;;11.68;62.19;101524.34;4191937;28;20028;-65
2023/05/24 06:41:14;;;;;;;;;;;;;;;11.68;62.31;101519.75;4195017;28;20019;-64
2023/05/24 06:43:17;;;;;;;;;;;;;;;11.70;62.25;101522.28;4191665;28;20522;-65
2023/05/24 06:45:19;;;;;;;;;;;;;;;11.74;62.03;101515.56;4194267;28;20027;-64
2023/05/24 06:47:21;;;;;;;;;;;;;;;11.80;62.16;101530.25;4195254;28;20016;-65
2023/05/24 06:49:23;;;;;;;;;;;;;;;11.82;62.39;101529.09;4195593;28;20015;-65
2023/05/24 06:51:25;;;;;;;;;;;;;;;11.82;62.22;101539.09;4194893;28;20031;-65
2023/05/24 06:53:27;;;;;;;;;;;;;;;11.82;62.26;101539.09;4194621;28;20502;-65
2023/05/24 06:55:31;;;;;;;;;;;;;;;11.82;62.36;101537.22;4195226;28;20490;-65
2023/05/24 06:57:33;;;;;;;;;;;;;;;11.88;61.96;101543.81;4194616;28;19924;-64
2023/05/24 06:59:35;;;;;;;;;;;;;;;11.92;61.80;101544.34;4194866;28;20023;-64
2023/05/24 07:01:38;;;;;;;;;;;;;;;11.97;61.88;101540.13;4194617;28;20613;-65
2023/05/24 07:03:40;;;;;;;;;;;;;;;12.00;61.21;101528.97;4194703;28;20020;-65
2023/05/24 07:05:42;;;;;;;;;;;;;;;12.01;61.78;101540.66;4195237;28;20019;-65
2023/05/24 07:07:44;;;;;;;;;;;;;;;12.05;61.67;101534.75;4195599;28;20027;-64
2023/05/24 07:09:46;;;;;;;;;;;;;;;12.10;61.60;101544.22;4194760;28;20024;-65
2023/05/24 07:11:50;;;;;;;;;;;;;;;12.12;61.52;101537.63;4194346;28;20016;-65
2023/05/24 07:13:52;;;;;;;;;;;;;;;12.15;61.53;101536.47;4194890;28;20039;-64
2023/05/24 07:15:53;;;;;;;;;;;;;;;12.19;61.38;101546.75;4195488;28;20023;-64
2023/05/24 07:17:55;;;;;;;;;;;;;;;12.25;61.43;101550.66;4194155;28;19936;-65
2023/05/24 07:19:57;;;;;;;;;;;;;;;12.27;61.40;101548.63;4195025;28;20036;-64
2023/05/24 07:21:59;;;;;;;;;;;;;;;12.26;61.14;101553.22;4195020;28;20022;-63
2023/05/24 07:24:02;;;;;;;;;;;;;;;12.28;61.28;101560.34;4194324;28;20343;-65
2023/05/24 07:26:05;;;;;;;;;;;;;;;12.28;61.21;101555.75;4193678;28;20019;-64
2023/05/24 07:28:08;;;;;;;;;;;;;;;12.26;61.44;101558.63;4194830;28;20027;-64
2023/05/24 07:30:11;;;;;;;;;;;;;;;12.26;61.47;101552.38;4194607;28;20012;-64
2023/05/24 07:32:13;;;;;;;;;;;;;;;12.26;61.29;101558.63;4193991;28;20024;-65
2023/05/24 07:34:15;;;;;;;;;;;;;;;12.24;61.16;101557.97;4193131;28;20062;-64
2023/05/24 07:36:17;;;;;;;;;;;;;;;12.19;61.43;101563.00;4195071;28;20011;-65
2023/05/24 07:38:19;;;;;;;;;;;;;;;12.15;61.84;101577.91;4194719;28;19978;-65
2023/05/24 07:40:22;;;;;;;;;;;;;;;12.12;61.77;101567.41;4195297;28;20007;-64
2023/05/24 07:42:24;;;;;;;;;;;;;;;12.08;62.11;101569.63;4194336;28;20022;-65
2023/05/24 07:44:28;;;;;;;;;;;;;;;12.08;62.42;101566.91;4194861;28;20367;-65
2023/05/24 07:46:30;;;;;;;;;;;;;;;12.14;62.67;101568.09;4195143;28;20463;-64
2023/05/24 07:48:32;;;;;;;;;;;;;;;12.20;62.22;101561.16;4194565;28;20020;-65
2023/05/24 07:50:34;;;;;;;;;;;;;;;12.25;62.12;101575.88;4194095;28;20031;-65
2023/05/24 07:52:37;;;;;;;;;;;;;;;12.28;61.83;101574.72;4194723;28;20027;-64
2023/05/24 07:54:39;;;;;;;;;;;;;;;12.30;61.68;101582.66;4194890;28;20023;-64
2023/05/24 07:56:41;;;;;;;;;;;;;;;12.28;61.57;101576.59;4195157;28;20007;-65
2023/05/24 07:58:45;;;;;;;;;;;;;;;12.32;61.52;101586.03;4194462;28;20008;-64
2023/05/24 08:00:48;;;;;;;;;;;;;;;12.34;61.21;101586.75;4194469;28;20015;-64
2023/05/24 08:02:51;;;;;;;;;;;;;;;12.38;61.56;101588.09;4194544;28;20011;-64
2023/05/24 08:04:53;;;;;;;;;;;;;;;12.41;60.86;101585.91;4194302;28;20023;-64
2023/05/24 08:06:56;;;;;;;;;;;;;;;12.47;61.02;101588.94;4194562;28;19952;-65
2023/05/24 08:08:58;;;;;;;;;;;;;;;12.41;61.16;101591.31;4194975;28;20426;-65
2023/05/24 08:11:00;;;;;;;;;;;;;;;12.42;61.43;101589.47;4194465;28;20023;-64
2023/05/24 08:13:03;;;;;;;;;;;;;;;12.44;61.29;101591.00;4193770;28;20019;-65
2023/05/24 08:15:06;;;;;;;;;;;;;;;12.41;60.97;101588.63;4194663;28;20019;-64
2023/05/24 08:17:09;;;;;;;;;;;;;;;12.37;61.06;101591.84;4194078;28;20376;-65
2023/05/24 08:19:11;;;;;;;;;;;;;;;12.34;60.97;101589.47;4194867;28;20624;-64
2023/05/24 08:21:13;;;;;;;;;;;;;;;12.31;61.25;101600.63;4193378;28;19975;-65
2023/05/24 08:23:15;;;;;;;;;;;;;;;12.32;61.42;101602.31;4194637;28;20011;-65
2023/05/24 08:25:17;;;;;;;;;;;;;;;12.31;61.80;101597.91;4194483;28;20036;-65
2023/05/24 08:27:20;;;;;;;;;;;;;;;12.31;62.30;101603.34;4193710;28;20465;-65
2023/05/24 08:29:22;;;;;;;;;;;;;;;12.35;62.02;101604.69;4193680;28;20372;-65
2023/05/24 08:31:25;;;;;;;;;;;;;;;12.37;62.08;101595.38;4194554;28;20059;-65
2023/05/24 08:33:29;;;;;;;;;;;;;;;12.41;62.57;101598.59;4194657;28;20390;-65
2023/05/24 08:35:31;;;;;;;;;;;;;;;12.47;62.39;101599.78;4194644;28;20027;-64
2023/05/24 08:37:33;;;;;;;;;;;;;;;12.55;62.11;101605.19;4193868;28;20028;-65
2023/05/24 08:39:35;;;;;;;;;;;;;;;12.55;61.56;101608.75;4194648;28;19931;-65
2023/05/24 08:41:37;;;;;;;;;;;;;;;12.50;61.50;101602.16;4193393;28;20364;-65
2023/05/24 08:43:39;;;;;;;;;;;;;;;12.46;61.79;101609.78;4193026;28;20023;-65
2023/05/24 08:45:41;;;;;;;;;;;;;;;12.46;62.07;101612.50;4193877;28;20036;-65
2023/05/24 08:47:43;;;;;;;;;;;;;;;12.49;62.25;101612.16;4193742;28;20027;-65
2023/05/24 08:49:46;;;;;;;;;;;;;;;12.53;62.13;101613.50;4194310;28;20019;-65
2023/05/24 08:51:48;;;;;;;;;;;;;;;12.54;62.07;101614.34;4194265;28;20040;-65
2023/05/24 08:53:50;;;;;;;;;;;;;;;12.53;62.13;101618.91;4193647;28;20478;-65
2023/05/24 08:55:53;;;;;;;;;;;;;;;12.51;61.51;101615.53;4193951;28;20019;-64
2023/05/24 08:57:55;;;;;;;;;;;;;;;12.46;61.60;101627.88;4195022;28;20023;-65
2023/05/24 08:59:58;;;;;;;;;;;;;;;12.37;61.58;101625.19;4193976;28;20789;-63
2023/05/24 09:02:00;;;;;;;;;;;;;;;12.36;62.51;101628.88;4193348;28;20015;-65
2023/05/24 09:04:02;;;;;;;;;;;;;;;12.37;61.86;101627.88;4194342;28;20027;-65
2023/05/24 09:06:05;;;;;;;;;;;;;;;12.35;61.95;101642.59;4195400;28;20347;-65
2023/05/24 09:08:08;;;;;;;;;;;;;;;12.33;62.18;101642.75;4196987;28;20026;-65
2023/05/24 09:10:10;;;;;;;;;;;;;;;12.30;62.13;101634.13;4197848;28;20020;-65
2023/05/24 09:12:14;;;;;;;;;;;;;;;12.29;62.12;101629.72;4196920;28;20015;-65
2023/05/24 09:14:16;;;;;;;;;;;;;;;12.32;62.29;101632.97;4197416;28;20025;-63
2023/05/24 09:16:20;;;;;;;;;;;;;;;12.36;61.73;101637.00;4197095;28;19933;-64
2023/05/24 09:18:25;;;;;;;;;;;;;;;12.38;61.72;101635.00;4194204;28;19935;-65
2023/05/24 09:20:28;;;;;;;;;;;;;;;12.40;61.64;101629.44;4197840;28;20513;-64
2023/05/24 09:22:33;;;;;;;;;;;;;;;12.42;61.84;101630.94;4197128;28;19932;-65
2023/05/24 09:24:40;;;;;;;;;;;;;;;12.41;62.14;101631.09;4196621;28;20396;-65
2023/05/24 09:26:42;;;;;;;;;;;;;;;12.48;62.21;101634.00;4197040;28;20359;-66
2023/05/24 09:28:44;;;;;;;;;;;;;;;12.53;61.60;101634.34;4196872;28;20043;-65
2023/05/24 09:30:47;;;;;;;;;;;;;;;12.56;60.71;101625.88;4196850;28;20032;-65
2023/05/24 09:32:56;;;;;;;;;;;;;;;12.58;60.48;101621.97;4194841;28;20034;-65
2023/05/24 09:34:58;;;;;;;;;;;;;;;12.57;60.10;101617.59;4196955;28;20031;-65
2023/05/24 09:37:01;;;;;;;;;;;;;;;12.54;60.26;101622.47;4197110;28;20055;-65
2023/05/24 09:39:09;;;;;;;;;;;;;;;12.57;60.71;101623.00;4196504;28;20039;-65
2023/05/24 09:41:11;;;;;;;;;;;;;;;12.57;60.38;101628.41;4196779;28;20387;-66
2023/05/24 09:43:13;;;;;;;;;;;;;;;12.58;60.33;101627.38;4196752;28;20369;-66
2023/05/24 09:45:15;;;;;;;;;;;;;;;12.59;59.97;101626.38;4196979;28;20015;-65
2023/05/24 09:47:17;;;;;;;;;;;;;;;12.61;59.48;101643.31;4196439;28;20023;-66
2023/05/24 09:49:20;;;;;;;;;;;;;;;12.61;59.65;101632.47;4196977;28;20024;-65
2023/05/24 09:51:23;;;;;;;;;;;;;;;12.66;59.79;101639.25;4196877;28;20486;-66
2023/05/24 09:53:25;;;;;;;;;;;;;;;12.68;59.40;101638.09;4196656;28;20027;-66
2023/05/24 09:55:29;;;;;;;;;;;;;;;12.70;59.60;101641.47;4196650;28;20028;-66
2023/05/24 09:57:31;;;;;;;;;;;;;;;12.74;59.48;101637.41;4196822;28;20015;-65
2023/05/24 09:59:34;;;;;;;;;;;;;;;12.78;59.29;101637.91;4196005;28;20015;-66
2023/05/24 10:01:35;;;;;;;;;;;;;;;12.80;59.60;101647.56;4195009;28;19968;-65
2023/05/24 10:03:38;;;;;;;;;;;;;;;12.82;59.38;101649.25;4196444;28;20027;-65
2023/05/24 10:05:41;;;;;;;;;;;;;;;12.80;59.12;101653.00;4196626;28;20031;-66
2023/05/24 10:07:43;;;;;;;;;;;;;;;12.81;58.70;101651.13;4196138;28;20019;-66
2023/05/24 10:09:45;;;;;;;;;;;;;;;12.82;58.92;101646.53;4195762;28;20020;-65
2023/05/24 10:11:48;;;;;;;;;;;;;;;12.83;58.68;101654.50;4195403;28;20007;-65
2023/05/24 10:13:51;;;;;;;;;;;;;;;12.83;58.60;101646.38;4196335;28;20486;-65
2023/05/24 10:15:53;;;;;;;;;;;;;;;12.84;58.47;101653.50;4196476;28;20380;-65
2023/05/24 10:17:55;;;;;;;;;;;;;;;12.82;59.19;101650.13;4195860;28;20016;-66
2023/05/24 10:19:58;;;;;;;;;;;;;;;12.82;59.11;101649.25;4196735;28;20023;-65
2023/05/24 10:22:03;;;;;;;;;;;;;;;12.82;59.16;101655.53;4195792;28;20018;-65
2023/05/24 10:24:05;;;;;;;;;;;;;;;12.86;59.54;101650.63;4196474;28;20362;-65
2023/05/24 10:26:08;;;;;;;;;;;;;;;12.91;59.26;101650.94;4195461;28;20032;-65
2023/05/24 10:28:12;;;;;;;;;;;;;;;12.99;59.29;101653.66;4196244;28;20649;-65
2023/05/24 10:30:15;;;;;;;;;;;;;;;13.05;58.97;101652.13;4195942;28;20015;-64